Time;durP1;ratioP1;P1;durP2;ratioP2;P2;SDS_P1;SDS_P2;PMS_P1;PMS_P2;Temp;Humidity;BMP_temperature;BMP_pressure;BME280_temperature;BME280_humidity;BME280_pressure;Samples;Min_cycle;Max_cycle;Signal;HPM_P1;HPM_P2
2022/09/26 00:01:03;;;;;;;3.92;1.67;;;10.90;99.90;;;;;;3059626;19;20021;-78
2022/09/26 00:02:07;;;;;;;6.70;1.77;;;11.20;99.90;;;;;;3058233;19;20023;-78
2022/09/26 00:03:09;;;;;;;3.70;1.70;;;11.10;99.90;;;;;;3058805;19;20032;-78
2022/09/26 00:04:18;;;;;;;2.50;1.65;;;11.20;99.90;;;;;;3057702;19;20014;-78
2022/09/26 00:05:20;;;;;;;3.95;1.63;;;11.10;99.90;;;;;;3059712;19;20014;-77
2022/09/26 00:06:24;;;;;;;4.78;1.60;;;11.20;99.90;;;;;;3058234;19;20031;-77
2022/09/26 00:07:28;;;;;;;5.20;1.40;;;11.10;99.90;;;;;;3057980;19;20014;-78
2022/09/26 00:08:32;;;;;;;6.93;1.50;;;11.20;99.90;;;;;;3057595;19;20014;-78
2022/09/26 00:09:33;;;;;;;3.85;1.50;;;10.70;99.90;;;;;;3058643;19;20018;-77
2022/09/26 00:10:37;;;;;;;6.22;1.55;;;11.20;99.90;;;;;;3058101;19;20013;-77
2022/09/26 00:11:39;;;;;;;2.63;1.52;;;11.20;99.90;;;;;;3057243;19;20542;-77
2022/09/26 00:12:44;;;;;;;;;;;11.40;99.90;;;;;;3059091;19;20234;-77
2022/09/26 00:13:46;;;;;;;3.53;1.60;;;11.20;99.90;;;;;;3057731;19;19919;-78
2022/09/26 00:14:49;;;;;;;;;;;11.30;99.90;;;;;;3058455;19;20022;-78
2022/09/26 00:15:51;;;;;;;3.00;1.30;;;11.40;99.90;;;;;;3058886;19;19923;-77
2022/09/26 00:16:56;;;;;;;4.70;1.40;;;11.10;99.90;;;;;;3058138;19;20472;-77
2022/09/26 00:17:57;;;;;;;3.97;1.30;;;11.40;99.90;;;;;;3058135;19;20006;-77
2022/09/26 00:19:01;;;;;;;1.88;1.30;;;11.30;99.90;;;;;;3057874;19;20330;-78
2022/09/26 00:20:03;;;;;;;4.30;1.20;;;11.10;99.90;;;;;;3058361;19;20018;-77
2022/09/26 00:21:09;;;;;;;2.60;1.33;;;11.20;99.90;;;;;;3058037;19;20011;-78
2022/09/26 00:22:10;;;;;;;4.70;1.70;;;11.30;99.90;;;;;;3057543;19;20010;-77
2022/09/26 00:23:18;;;;;;;3.00;1.88;;;11.50;99.90;;;;;;3058690;19;20010;-78
2022/09/26 00:24:19;;;;;;;3.72;1.50;;;11.20;99.90;;;;;;3057304;19;20015;-78
2022/09/26 00:25:23;;;;;;;6.18;1.80;;;11.50;99.90;;;;;;3059519;19;20019;-78
2022/09/26 00:26:29;;;;;;;4.20;2.00;;;11.10;99.90;;;;;;3059267;19;20015;-77
2022/09/26 00:27:33;;;;;;;5.40;2.15;;;11.20;99.90;;;;;;3058284;19;20039;-77
2022/09/26 00:28:35;;;;;;;4.75;2.08;;;11.60;99.90;;;;;;3057125;19;20096;-78
2022/09/26 00:29:40;;;;;;;5.63;1.83;;;11.50;99.90;;;;;;3058917;19;20373;-77
2022/09/26 00:30:43;;;;;;;6.13;2.13;;;11.40;99.90;;;;;;3057787;19;20030;-77
2022/09/26 00:31:49;;;;;;;4.65;2.20;;;11.50;99.90;;;;;;3057888;19;20045;-77
2022/09/26 00:32:50;;;;;;;6.10;2.22;;;11.30;99.90;;;;;;3057637;19;20034;-78
2022/09/26 00:33:52;;;;;;;4.10;2.30;;;11.10;99.90;;;;;;3057651;19;20022;-76
2022/09/26 00:34:56;;;;;;;5.22;2.15;;;11.10;99.90;;;;;;3057388;19;20019;-77
2022/09/26 00:35:57;;;;;;;5.43;2.38;;;11.10;99.90;;;;;;3057951;19;20003;-77
2022/09/26 00:37:01;;;;;;;7.55;2.40;;;10.90;99.90;;;;;;3058567;19;20036;-77
2022/09/26 00:38:03;;;;;;;8.32;2.70;;;10.90;99.90;;;;;;3057790;19;20006;-77
2022/09/26 00:39:12;;;;;;;2.80;2.10;;;11.00;99.90;;;;;;3057439;19;20018;-77
2022/09/26 00:40:15;;;;;;;6.38;2.70;;;11.40;99.90;;;;;;3057722;19;20018;-78
2022/09/26 00:41:19;;;;;;;4.82;2.33;;;11.00;99.90;;;;;;3057089;19;20015;-78
2022/09/26 00:42:25;;;;;;;5.28;2.20;;;11.20;99.90;;;;;;3061428;19;20341;-77
2022/09/26 00:43:29;;;;;;;4.05;2.50;;;10.90;99.90;;;;;;3062252;19;20382;-77
2022/09/26 00:44:49;;;;;;;4.93;2.42;;;11.00;99.90;;;;;;3059495;19;20018;-78
2022/09/26 00:45:50;;;;;;;4.22;2.60;;;10.80;99.90;;;;;;3060825;19;20487;-78
2022/09/26 00:46:54;;;;;;;4.47;2.13;;;;;;;;;;3060641;19;20078;-77
2022/09/26 00:48:00;;;;;;;5.65;2.70;;;10.80;99.90;;;;;;3061061;19;20340;-77
2022/09/26 00:49:15;;;;;;;5.60;2.80;;;10.80;99.90;;;;;;3059018;19;20014;-78
2022/09/26 00:50:22;;;;;;;5.93;2.95;;;10.90;99.90;;;;;;3061014;19;20125;-78
2022/09/26 00:51:25;;;;;;;4.13;2.40;;;10.90;99.90;;;;;;3060161;19;20014;-77
2022/09/26 00:52:32;;;;;;;6.20;2.95;;;10.70;99.90;;;;;;3062039;19;20014;-78
2022/09/26 00:53:40;;;;;;;4.15;2.80;;;11.00;99.90;;;;;;3060499;19;20010;-77
2022/09/26 00:54:47;;;;;;;5.95;2.53;;;10.50;99.90;;;;;;3060812;19;20010;-78
2022/09/26 00:55:54;;;;;;;6.75;2.85;;;11.20;99.90;;;;;;3060415;19;20516;-78
2022/09/26 00:57:03;;;;;;;4.72;2.80;;;10.70;99.90;;;;;;3060867;19;20002;-77
2022/09/26 00:58:11;;;;;;;3.42;2.60;;;10.80;99.90;;;;;;3062071;19;20014;-77
2022/09/26 00:59:18;;;;;;;6.30;3.10;;;10.80;99.90;;;;;;3059977;19;20038;-78
2022/09/26 01:00:22;;;;;;;7.53;2.92;;;10.80;99.90;;;;;;3060781;19;20011;-77
2022/09/26 01:01:23;;;;;;;4.75;2.90;;;11.00;99.90;;;;;;3062132;19;20108;-77
2022/09/26 01:02:29;;;;;;;5.70;3.10;;;10.80;99.90;;;;;;3060742;19;20085;-77
2022/09/26 01:03:31;;;;;;;5.55;3.30;;;10.60;99.90;;;;;;3060360;19;20431;-78
2022/09/26 01:04:37;;;;;;;;;;;11.40;99.90;;;;;;3061380;19;20017;-77
2022/09/26 01:05:38;;;;;;;6.60;3.00;;;10.70;99.90;;;;;;3060350;19;19932;-77
2022/09/26 01:06:43;;;;;;;7.15;2.80;;;10.70;99.90;;;;;;3060663;19;20006;-78
2022/09/26 01:07:44;;;;;;;7.97;3.58;;;10.60;99.90;;;;;;3060196;19;20015;-77
2022/09/26 01:08:53;;;;;;;5.53;3.13;;;10.70;99.90;;;;;;3059780;19;20006;-77
2022/09/26 01:09:58;;;;;;;6.00;3.55;;;10.70;99.90;;;;;;3061632;19;20022;-77
2022/09/26 01:11:03;;;;;;;6.38;3.10;;;10.50;99.90;;;;;;3060139;19;20046;-77
2022/09/26 01:12:06;;;;;;;5.18;2.90;;;11.10;99.90;;;;;;3061445;19;20025;-77
2022/09/26 01:13:10;;;;;;;6.80;3.33;;;;;;;;;;3060792;19;20022;-78
2022/09/26 01:14:12;;;;;;;4.65;3.05;;;10.90;99.90;;;;;;3061580;19;20014;-77
2022/09/26 01:15:16;;;;;;;6.30;3.00;;;10.80;99.90;;;;;;3060402;19;20014;-77
2022/09/26 01:16:19;;;;;;;4.22;2.97;;;10.70;99.90;;;;;;3060113;19;20527;-77
2022/09/26 01:17:24;;;;;;;4.75;2.70;;;10.70;99.90;;;;;;3060624;19;20014;-78
2022/09/26 01:18:26;;;;;;;7.57;3.10;;;10.60;99.90;;;;;;3060094;19;20014;-77
2022/09/26 01:19:40;;;;;;;7.10;3.17;;;10.70;99.90;;;;;;3059961;19;20014;-77
2022/09/26 01:20:52;;;;;;;5.25;3.00;;;10.60;99.90;;;;;;3059449;19;20014;-77
2022/09/26 01:22:13;;;;;;;4.07;2.80;;;10.40;99.90;;;;;;3060420;19;20023;-78
2022/09/26 01:23:55;;;;;;;6.90;3.08;;;10.50;99.90;;;;;;3059589;19;20003;-77
2022/09/26 01:25:10;;;;;;;5.18;3.17;;;10.90;99.90;;;;;;3058617;19;20015;-78
2022/09/26 01:26:36;;;;;;;6.00;2.63;;;10.60;99.90;;;;;;3061043;19;20011;-77
2022/09/26 01:28:01;;;;;;;5.07;2.78;;;10.50;99.90;;;;;;3060556;19;20006;-77
2022/09/26 01:29:30;;;;;;;6.85;3.00;;;10.40;99.90;;;;;;3059091;19;20014;-77
2022/09/26 01:30:43;;;;;;;6.05;2.80;;;10.70;99.90;;;;;;3057398;19;20003;-78
2022/09/26 01:33:43;;;;;;;4.70;2.63;;;10.80;99.90;;;;;;3059189;19;20011;-78
2022/09/26 01:34:54;;;;;;;7.05;2.80;;;10.60;99.90;;;;;;3058188;19;20434;-77
2022/09/26 01:36:15;;;;;;;5.30;3.00;;;10.40;99.90;;;;;;3061884;19;20018;-78
2022/09/26 01:37:29;;;;;;;4.38;2.45;;;10.60;99.90;;;;;;3059989;19;20010;-78
2022/09/26 01:38:45;;;;;;;7.50;2.67;;;10.60;99.90;;;;;;3061779;19;20014;-77
2022/09/26 01:39:56;;;;;;;4.53;2.90;;;10.50;99.90;;;;;;3059926;19;20506;-76
2022/09/26 01:41:12;;;;;;;8.95;3.10;;;10.50;99.90;;;;;;3059899;19;20014;-76
2022/09/26 01:42:22;;;;;;;7.35;3.03;;;10.40;99.90;;;;;;3059863;19;20014;-77
2022/09/26 01:43:33;;;;;;;4.28;2.70;;;10.50;99.90;;;;;;3059111;19;20032;-77
2022/09/26 01:44:40;;;;;;;6.22;2.78;;;10.50;99.90;;;;;;3060341;19;20376;-78
2022/09/26 01:45:55;;;;;;;4.88;2.72;;;10.50;99.90;;;;;;3059752;19;20501;-77
2022/09/26 01:47:00;;;;;;;4.88;2.83;;;10.40;99.90;;;;;;3060245;19;20018;-77
2022/09/26 01:48:15;;;;;;;5.43;2.47;;;10.50;99.90;;;;;;3059885;19;20404;-77
2022/09/26 01:49:23;;;;;;;5.85;2.70;;;10.50;99.90;;;;;;3057999;19;20034;-77
2022/09/26 01:50:33;;;;;;;7.38;3.03;;;10.50;99.90;;;;;;3059954;19;20368;-78
2022/09/26 01:51:40;;;;;;;5.40;2.55;;;10.50;99.90;;;;;;3061439;19;20022;-77
2022/09/26 01:52:50;;;;;;;5.65;2.60;;;10.30;99.90;;;;;;3060610;19;20018;-77
2022/09/26 01:53:56;;;;;;;5.43;2.70;;;10.30;99.90;;;;;;3056918;19;20014;-77
2022/09/26 01:55:05;;;;;;;6.00;2.67;;;10.60;99.90;;;;;;3060013;19;20010;-77
2022/09/26 01:56:11;;;;;;;5.90;2.80;;;10.60;99.90;;;;;;3061165;19;20364;-78
2022/09/26 01:57:19;;;;;;;8.48;2.83;;;10.60;99.90;;;;;;3060161;19;20487;-77
2022/09/26 01:58:24;;;;;;;3.85;2.40;;;10.80;99.90;;;;;;3058342;19;20503;-77
2022/09/26 01:59:33;;;;;;;6.22;2.83;;;10.60;99.90;;;;;;3059632;19;20036;-77
2022/09/26 02:00:37;;;;;;;5.88;2.60;;;10.30;99.90;;;;;;3059221;19;20019;-77
2022/09/26 02:01:46;;;;;;;5.53;2.45;;;10.40;99.90;;;;;;3059214;19;20031;-78
2022/09/26 02:02:48;;;;;;;3.97;2.42;;;10.40;99.90;;;;;;3059859;19;20006;-75
2022/09/26 02:03:57;;;;;;;7.10;2.53;;;10.50;99.90;;;;;;3060041;19;20031;-78
2022/09/26 02:05:03;;;;;;;7.35;2.50;;;10.60;99.90;;;;;;3059549;19;20092;-77
2022/09/26 02:06:12;;;;;;;4.53;2.45;;;10.50;99.90;;;;;;3058765;19;20011;-78
2022/09/26 02:07:15;;;;;;;5.63;2.28;;;10.60;99.90;;;;;;3058756;19;20014;-78
2022/09/26 02:08:24;;;;;;;4.78;2.13;;;10.60;99.90;;;;;;3059546;19;20022;-77
2022/09/26 02:09:32;;;;;;;5.25;2.28;;;10.60;99.90;;;;;;3058562;19;20023;-77
2022/09/26 02:10:39;;;;;;;5.65;2.33;;;11.00;99.90;;;;;;3059358;19;20026;-77
2022/09/26 02:11:45;;;;;;;5.22;2.25;;;10.30;99.90;;;;;;3059807;19;20017;-77
2022/09/26 02:12:54;;;;;;;4.78;2.30;;;10.80;99.90;;;;;;3058585;19;20383;-77
2022/09/26 02:14:02;;;;;;;7.82;2.47;;;11.00;99.90;;;;;;3059746;19;20007;-77
2022/09/26 02:15:10;;;;;;;6.05;2.30;;;10.60;99.90;;;;;;3060169;19;20034;-76
2022/09/26 02:16:18;;;;;;;8.65;2.42;;;10.40;99.90;;;;;;3059726;19;20503;-77
2022/09/26 02:17:30;;;;;;;7.47;2.40;;;10.50;99.90;;;;;;3058773;19;20003;-77
2022/09/26 02:18:37;;;;;;;3.58;2.38;;;10.60;99.90;;;;;;3059782;19;20011;-77
2022/09/26 02:19:48;;;;;;;6.78;2.22;;;10.80;99.90;;;;;;3059222;19;20014;-76
2022/09/26 02:21:00;;;;;;;3.75;2.03;;;10.80;99.90;;;;;;3057663;19;20026;-77
2022/09/26 02:22:04;;;;;;;6.07;2.42;;;10.60;99.90;;;;;;3060226;19;20014;-77
2022/09/26 02:23:05;;;;;;;4.82;2.80;;;10.60;99.90;;;;;;3059702;19;20021;-77
2022/09/26 02:24:09;;;;;;;6.25;2.55;;;;;;;;;;3059017;19;20026;-77
2022/09/26 02:25:10;;;;;;;6.80;2.33;;;10.60;99.90;;;;;;3059243;19;20015;-77
2022/09/26 02:26:14;;;;;;;10.02;2.65;;;;;;;;;;3060297;19;20018;-77
2022/09/26 02:27:16;;;;;;;10.30;2.70;;;10.70;99.90;;;;;;3058750;19;20007;-77
2022/09/26 02:28:20;;;;;;;6.97;2.40;;;10.70;99.90;;;;;;3059962;19;20039;-77
2022/09/26 02:29:22;;;;;;;7.20;2.75;;;10.80;99.90;;;;;;3058359;19;20010;-77
2022/09/26 02:30:26;;;;;;;5.43;2.17;;;10.70;99.90;;;;;;3059574;19;20022;-76
2022/09/26 02:31:30;;;;;;;7.97;2.40;;;10.60;99.90;;;;;;3059151;19;20360;-77
2022/09/26 02:32:39;;;;;;;6.78;2.42;;;10.70;99.90;;;;;;3059041;19;20468;-75
2022/09/26 02:33:40;;;;;;;7.43;2.70;;;10.70;99.90;;;;;;3059667;19;20039;-77
2022/09/26 02:34:46;;;;;;;4.95;2.47;;;10.60;99.90;;;;;;3059990;19;20582;-76
2022/09/26 02:35:54;;;;;;;4.43;2.17;;;10.80;99.90;;;;;;3059723;19;20019;-77
2022/09/26 02:36:59;;;;;;;4.35;2.45;;;10.60;99.90;;;;;;3058455;19;20077;-77
2022/09/26 02:38:01;;;;;;;8.95;2.80;;;10.70;99.90;;;;;;3059634;19;20018;-76
2022/09/26 02:39:06;;;;;;;6.15;2.42;;;10.70;99.90;;;;;;3058966;19;20017;-77
2022/09/26 02:40:08;;;;;;;9.27;2.90;;;10.70;99.90;;;;;;3059287;19;20483;-76
2022/09/26 02:41:19;;;;;;;5.93;2.67;;;10.60;99.90;;;;;;3059222;19;20014;-76
2022/09/26 02:42:28;;;;;;;5.63;2.75;;;10.50;99.90;;;;;;3059655;19;20516;-77
2022/09/26 02:43:52;;;;;;;6.72;2.70;;;10.70;99.90;;;;;;3058910;19;20100;-77
2022/09/26 02:45:27;;;;;;;4.82;2.55;;;10.60;99.90;;;;;;3058497;19;20006;-77
2022/09/26 02:46:51;;;;;;;5.80;2.75;;;10.60;99.90;;;;;;3057953;19;20078;-77
2022/09/26 02:48:29;;;;;;;6.90;2.92;;;10.80;99.90;;;;;;3058083;19;20014;-77
2022/09/26 02:49:49;;;;;;;6.80;2.67;;;10.60;99.90;;;;;;3058212;19;20022;-77
2022/09/26 02:51:04;;;;;;;4.55;2.80;;;11.10;99.90;;;;;;3058374;19;20029;-78
2022/09/26 02:52:20;;;;;;;8.07;2.90;;;11.00;99.90;;;;;;3057914;19;20475;-78
2022/09/26 02:53:40;;;;;;;6.70;2.53;;;10.90;99.90;;;;;;3061067;19;20011;-77
2022/09/26 02:54:46;;;;;;;5.55;3.03;;;10.60;99.90;;;;;;3058973;19;20017;-77
2022/09/26 02:55:56;;;;;;;8.75;3.15;;;10.60;99.90;;;;;;3059444;19;20060;-78
2022/09/26 02:57:10;;;;;;;7.53;3.08;;;10.40;99.90;;;;;;3058316;19;20014;-77
2022/09/26 02:58:23;;;;;;;6.15;3.03;;;10.60;99.90;;;;;;3058713;19;20090;-78
2022/09/26 02:59:32;;;;;;;5.10;3.13;;;10.60;99.90;;;;;;3057218;19;20010;-77
2022/09/26 03:00:49;;;;;;;5.97;3.22;;;10.60;99.90;;;;;;3059447;19;20007;-78
2022/09/26 03:01:55;;;;;;;6.28;3.10;;;10.60;99.90;;;;;;3060118;19;20007;-78
2022/09/26 03:03:07;;;;;;;4.78;3.28;;;10.60;99.90;;;;;;3058636;19;20078;-77
2022/09/26 03:04:17;;;;;;;7.38;3.33;;;10.60;99.90;;;;;;3058375;19;20495;-78
2022/09/26 03:05:23;;;;;;;8.60;3.08;;;10.80;99.90;;;;;;3058197;19;20022;-77
2022/09/26 03:06:30;;;;;;;10.52;3.88;;;10.60;99.90;;;;;;3060407;19;20026;-78
2022/09/26 03:07:39;;;;;;;8.57;3.20;;;10.40;99.90;;;;;;3059062;19;20018;-78
2022/09/26 03:08:45;;;;;;;6.10;3.13;;;10.40;99.90;;;;;;3057959;19;20011;-78
2022/09/26 03:09:52;;;;;;;6.55;3.70;;;10.80;99.90;;;;;;3058503;19;20011;-78
2022/09/26 03:10:55;;;;;;;8.50;3.30;;;10.50;99.90;;;;;;3057469;19;20022;-78
2022/09/26 03:12:02;;;;;;;5.97;3.13;;;10.60;99.90;;;;;;3059032;19;20025;-78
2022/09/26 03:13:07;;;;;;;9.15;3.40;;;10.40;99.90;;;;;;3058023;19;20090;-79
2022/09/26 03:14:13;;;;;;;8.68;3.33;;;10.60;99.90;;;;;;3059890;19;20021;-78
2022/09/26 03:15:16;;;;;;;7.75;3.10;;;10.60;99.90;;;;;;3058696;19;20018;-79
2022/09/26 03:16:22;;;;;;;9.07;3.80;;;10.60;99.90;;;;;;3058713;19;20071;-79
2022/09/26 03:17:25;;;;;;;7.57;3.20;;;10.50;99.90;;;;;;3058184;19;20555;-78
2022/09/26 03:18:34;;;;;;;7.93;3.90;;;10.50;99.90;;;;;;3058258;19;20057;-78
2022/09/26 03:19:43;;;;;;;5.68;3.08;;;10.60;99.90;;;;;;3058092;19;20017;-78
2022/09/26 03:20:48;;;;;;;9.70;3.75;;;10.90;99.90;;;;;;3058141;19;20025;-79
2022/09/26 03:21:49;;;;;;;10.73;3.72;;;10.40;99.90;;;;;;3059530;19;20035;-80
2022/09/26 03:22:54;;;;;;;7.45;3.28;;;10.80;99.90;;;;;;3059113;19;20030;-79
2022/09/26 03:23:56;;;;;;;9.10;3.83;;;10.50;99.90;;;;;;3056667;19;20011;-79
2022/09/26 03:25:01;;;;;;;7.65;3.60;;;;;;;;;;3059363;19;20022;-79
2022/09/26 03:26:07;;;;;;;9.20;3.70;;;10.70;99.90;;;;;;3059326;19;20710;-77
2022/09/26 03:27:12;;;;;;;6.40;3.30;;;10.70;99.90;;;;;;3058586;19;20006;-78
2022/09/26 03:28:13;;;;;;;7.70;3.58;;;10.70;99.90;;;;;;3058610;19;20498;-78
2022/09/26 03:29:18;;;;;;;9.07;3.53;;;10.20;99.90;;;;;;3058588;19;20018;-78
2022/09/26 03:30:20;;;;;;;7.18;3.53;;;10.10;99.90;;;;;;3057809;19;20472;-79
2022/09/26 03:31:25;;;;;;;10.73;3.65;;;10.40;99.90;;;;;;3055231;19;20027;-79
2022/09/26 03:32:27;;;;;;;5.75;3.65;;;10.30;99.90;;;;;;3056645;19;20014;-79
2022/09/26 03:33:31;;;;;;;5.63;3.90;;;10.50;99.90;;;;;;3053886;19;20616;-79
2022/09/26 03:34:32;;;;;;;4.50;3.42;;;10.10;99.90;;;;;;3057507;19;20419;-79
2022/09/26 03:35:39;;;;;;;5.18;3.55;;;10.50;99.90;;;;;;3057041;19;20010;-80
2022/09/26 03:36:44;;;;;;;8.60;3.75;;;10.30;99.90;;;;;;3056120;19;20531;-78
2022/09/26 03:37:46;;;;;;;6.80;3.45;;;;;;;;;;3058270;19;20006;-79
2022/09/26 03:38:50;;;;;;;6.72;3.45;;;;;;;;;;3057934;19;20022;-79
2022/09/26 03:39:52;;;;;;;9.30;3.67;;;10.40;99.90;;;;;;3057763;19;20018;-80
2022/09/26 03:40:56;;;;;;;7.85;3.53;;;10.30;99.90;;;;;;3057544;19;20010;-80
2022/09/26 03:41:57;;;;;;;7.43;3.85;;;10.60;99.90;;;;;;3058873;19;20078;-78
2022/09/26 03:43:01;;;;;;;5.80;3.38;;;;;;;;;;3058885;19;20035;-79
2022/09/26 03:44:03;;;;;;;9.05;3.55;;;;;;;;;;3057519;19;20017;-80
2022/09/26 03:45:09;;;;;;;;;;;10.40;99.90;;;;;;3059216;19;20609;-79
2022/09/26 03:46:11;;;;;;;5.43;3.30;;;10.10;99.90;;;;;;3058835;19;19919;-79
2022/09/26 03:47:16;;;;;;;7.22;3.70;;;;;;;;;;3057651;19;20021;-79
2022/09/26 03:48:17;;;;;;;12.63;3.92;;;10.20;99.90;;;;;;3057904;19;20022;-79
2022/09/26 03:49:21;;;;;;;9.05;3.90;;;10.20;99.90;;;;;;3058862;19;20039;-79
2022/09/26 03:50:22;;;;;;;7.63;4.00;;;10.40;99.90;;;;;;3057583;19;20764;-79
2022/09/26 03:51:29;;;;;;;8.80;4.20;;;10.20;99.90;;;;;;3057019;19;20035;-79
2022/09/26 03:52:30;;;;;;;8.05;3.42;;;10.20;99.90;;;;;;3058172;19;20043;-79
2022/09/26 03:53:35;;;;;;;10.02;4.85;;;10.40;99.90;;;;;;3059452;19;20489;-79
2022/09/26 03:54:36;;;;;;;10.95;4.10;;;;;;;;;;3057583;19;20018;-80
2022/09/26 03:55:40;;;;;;;5.43;3.58;;;10.30;99.90;;;;;;3058531;19;20006;-79
2022/09/26 03:56:41;;;;;;;8.27;4.50;;;10.30;99.90;;;;;;3057038;19;20029;-79
2022/09/26 03:57:45;;;;;;;7.32;4.47;;;10.10;99.90;;;;;;3055454;19;20032;-79
2022/09/26 03:58:47;;;;;;;9.02;4.22;;;10.30;99.90;;;;;;3055762;19;20128;-79
2022/09/26 03:59:51;;;;;;;9.70;4.10;;;10.30;99.90;;;;;;3059834;19;20341;-79
2022/09/26 04:00:53;;;;;;;7.85;4.00;;;10.30;99.90;;;;;;3055554;19;20018;-79
2022/09/26 04:01:56;;;;;;;6.30;4.10;;;10.60;99.90;;;;;;3058163;19;20029;-79
2022/09/26 04:03:02;;;;;;;10.55;4.32;;;10.30;99.90;;;;;;3057783;19;20025;-79
2022/09/26 04:04:05;;;;;;;7.63;4.03;;;10.30;99.90;;;;;;3057422;19;20463;-79
2022/09/26 04:05:08;;;;;;;7.75;4.13;;;10.30;99.90;;;;;;3057919;19;20007;-79
2022/09/26 04:06:14;;;;;;;7.38;4.38;;;10.10;99.90;;;;;;3058853;19;20508;-79
2022/09/26 04:07:17;;;;;;;8.95;4.47;;;10.30;99.90;;;;;;3057585;19;20039;-78
2022/09/26 04:08:21;;;;;;;9.75;4.30;;;10.00;99.90;;;;;;3058423;19;20010;-79
2022/09/26 04:09:23;;;;;;;9.98;5.10;;;10.50;99.90;;;;;;3057813;19;20022;-79
2022/09/26 04:10:27;;;;;;;9.00;4.90;;;;;;;;;;3057278;19;20476;-79
2022/09/26 04:11:28;;;;;;;12.07;4.70;;;;;;;;;;3056775;19;20022;-78
2022/09/26 04:12:32;;;;;;;9.68;4.90;;;10.40;99.90;;;;;;3058181;19;20017;-79
2022/09/26 04:13:34;;;;;;;9.05;4.28;;;10.20;99.90;;;;;;3057675;19;20018;-80
2022/09/26 04:14:38;;;;;;;8.70;4.72;;;10.50;99.90;;;;;;3057418;19;20021;-78
2022/09/26 04:15:39;;;;;;;7.63;4.40;;;;;;;;;;3056965;19;20023;-79
2022/09/26 04:16:43;;;;;;;8.18;4.45;;;10.10;99.90;;;;;;3057493;19;20002;-79
2022/09/26 04:17:45;;;;;;;7.47;4.28;;;10.00;99.90;;;;;;3061193;19;20011;-79
2022/09/26 04:18:49;;;;;;;9.27;4.45;;;10.60;99.90;;;;;;3061453;19;20510;-79
2022/09/26 04:19:50;;;;;;;9.75;4.60;;;;;;;;;;3060039;19;20097;-79
2022/09/26 04:20:59;;;;;;;6.97;4.75;;;10.20;99.90;;;;;;3059586;19;20018;-78
2022/09/26 04:22:01;;;;;;;9.32;4.63;;;10.10;99.90;;;;;;3061364;19;20039;-79
2022/09/26 04:23:07;;;;;;;7.78;4.55;;;10.50;99.90;;;;;;3061097;19;20018;-78
2022/09/26 04:24:13;;;;;;;10.32;5.22;;;10.20;99.90;;;;;;3060846;19;20054;-79
2022/09/26 04:25:17;;;;;;;8.23;4.90;;;10.40;99.90;;;;;;3060438;19;20013;-78
2022/09/26 04:26:19;;;;;;;9.18;4.97;;;10.10;99.90;;;;;;3061004;19;20026;-79
2022/09/26 04:27:27;;;;;;;10.30;5.20;;;10.20;99.90;;;;;;3059793;19;20015;-79
2022/09/26 04:28:29;;;;;;;11.00;5.18;;;10.20;99.90;;;;;;3062661;19;20035;-79
2022/09/26 04:29:33;;;;;;;9.10;4.63;;;10.10;99.90;;;;;;3060769;19;20956;-78
2022/09/26 04:30:36;;;;;;;8.10;5.10;;;10.10;99.90;;;;;;3059955;19;20034;-78
2022/09/26 04:31:40;;;;;;;10.73;5.00;;;;;;;;;;3061610;19;20022;-78
2022/09/26 04:32:42;;;;;;;8.38;4.90;;;10.20;99.90;;;;;;3060409;19;20002;-77
2022/09/26 04:33:45;;;;;;;8.95;4.90;;;10.20;99.90;;;;;;3061713;19;20018;-77
2022/09/26 04:34:47;;;;;;;8.88;5.35;;;10.40;99.90;;;;;;3060203;19;20015;-78
2022/09/26 04:35:51;;;;;;;10.60;5.70;;;10.10;99.90;;;;;;3060517;19;20006;-78
2022/09/26 04:36:52;;;;;;;6.55;4.65;;;10.10;99.90;;;;;;3060413;19;20002;-78
2022/09/26 04:37:56;;;;;;;8.65;4.82;;;;;;;;;;3060456;19;20017;-78
2022/09/26 04:39:00;;;;;;;12.43;5.30;;;10.80;99.90;;;;;;3061081;19;20011;-77
2022/09/26 04:40:05;;;;;;;11.55;5.35;;;10.00;99.90;;;;;;3060761;19;20026;-76
2022/09/26 04:41:07;;;;;;;8.65;5.47;;;10.00;99.90;;;;;;3060594;19;20014;-77
2022/09/26 04:42:11;;;;;;;9.82;5.05;;;10.50;99.90;;;;;;3060775;19;20014;-77
2022/09/26 04:43:13;;;;;;;8.98;5.13;;;10.00;99.90;;;;;;3062396;19;20029;-78
2022/09/26 04:44:17;;;;;;;10.68;5.55;;;9.90;99.90;;;;;;3060661;19;20010;-78
2022/09/26 04:45:18;;;;;;;11.15;5.45;;;9.90;99.90;;;;;;3059977;19;20022;-77
2022/09/26 04:46:23;;;;;;;12.50;5.72;;;10.10;99.90;;;;;;3061370;19;20014;-78
2022/09/26 04:47:25;;;;;;;9.40;5.38;;;10.10;99.90;;;;;;3060553;19;20006;-77
2022/09/26 04:48:30;;;;;;;10.05;5.40;;;10.00;99.90;;;;;;3062162;19;20032;-77
2022/09/26 04:49:31;;;;;;;10.85;5.53;;;9.90;99.90;;;;;;3060410;19;20418;-78
2022/09/26 04:50:35;;;;;;;10.27;5.28;;;10.10;99.90;;;;;;3059689;19;20383;-78
2022/09/26 04:51:36;;;;;;;9.25;5.38;;;10.10;99.90;;;;;;3062130;19;20100;-77
2022/09/26 04:52:40;;;;;;;10.82;5.45;;;;;;;;;;3060645;19;20002;-77
2022/09/26 04:53:42;;;;;;;10.93;5.32;;;10.50;99.90;;;;;;3060673;19;20021;-78
2022/09/26 04:54:48;;;;;;;;;;;10.30;99.90;;;;;;3061413;19;20009;-77
2022/09/26 04:55:53;;;;;;;9.23;5.10;;;10.00;99.90;;;;;;3060667;19;19922;-77
2022/09/26 04:56:58;;;;;;;12.43;5.50;;;10.00;99.90;;;;;;3060387;19;20028;-77
2022/09/26 04:58:01;;;;;;;12.95;5.85;;;9.90;99.90;;;;;;3061479;19;20023;-77
2022/09/26 04:59:05;;;;;;;11.02;6.00;;;10.00;99.90;;;;;;3060423;19;20326;-77
2022/09/26 05:00:10;;;;;;;8.30;5.35;;;10.10;99.90;;;;;;3059942;19;20104;-78
2022/09/26 05:01:16;;;;;;;9.15;5.32;;;10.10;99.90;;;;;;3059223;19;20018;-76
2022/09/26 05:02:20;;;;;;;9.85;5.03;;;10.10;99.90;;;;;;3060643;19;20022;-77
2022/09/26 05:03:21;;;;;;;9.43;5.35;;;10.10;99.90;;;;;;3060218;19;20050;-78
2022/09/26 05:04:25;;;;;;;9.60;5.22;;;9.70;99.90;;;;;;3060509;19;20014;-78
2022/09/26 05:05:31;;;;;;;9.98;5.55;;;10.30;99.90;;;;;;3059703;19;20022;-79
2022/09/26 05:06:35;;;;;;;8.82;5.70;;;10.10;99.90;;;;;;3059666;19;20369;-77
2022/09/26 05:07:39;;;;;;;10.20;5.43;;;10.00;99.90;;;;;;3060259;19;20022;-78
2022/09/26 05:08:45;;;;;;;11.27;6.18;;;10.00;99.90;;;;;;3059801;19;20018;-78
2022/09/26 05:09:49;;;;;;;9.93;5.30;;;10.10;99.90;;;;;;3059997;19;20022;-74
2022/09/26 05:10:55;;;;;;;9.80;5.97;;;10.40;99.90;;;;;;3061893;19;20015;-77
2022/09/26 05:11:56;;;;;;;9.25;5.75;;;10.10;99.90;;;;;;3059506;19;20014;-83
2022/09/26 05:13:01;;;;;;;9.38;6.03;;;9.80;99.90;;;;;;3060503;19;20019;-79
2022/09/26 05:14:02;;;;;;;9.23;5.80;;;10.40;99.90;;;;;;3059872;19;20422;-79
2022/09/26 05:15:08;;;;;;;10.10;5.97;;;10.10;99.90;;;;;;3058070;19;20038;-78
2022/09/26 05:16:10;;;;;;;9.30;5.40;;;10.00;99.90;;;;;;3059567;19;20018;-79
2022/09/26 05:17:15;;;;;;;7.95;5.72;;;9.80;99.90;;;;;;3058705;19;20360;-78
2022/09/26 05:18:17;;;;;;;8.75;5.60;;;10.00;99.90;;;;;;3059411;19;20022;-79
2022/09/26 05:19:21;;;;;;;8.77;5.30;;;10.10;99.90;;;;;;3060647;19;20306;-79
2022/09/26 05:20:27;;;;;;;9.55;5.80;;;9.90;99.90;;;;;;3059072;19;20059;-79
2022/09/26 05:21:31;;;;;;;10.25;5.72;;;10.10;99.90;;;;;;3059617;19;20360;-78
2022/09/26 05:22:33;;;;;;;8.60;5.25;;;10.00;99.90;;;;;;3059966;19;20011;-77
2022/09/26 05:26:21;;;;;;;10.52;5.68;;;10.00;99.90;;;;;;3060065;19;20437;-80
2022/09/26 05:27:23;;;;;;;8.43;5.95;;;10.10;99.90;;;;;;3061759;19;20027;-79
2022/09/26 05:28:27;;;;;;;8.82;5.72;;;10.00;99.90;;;;;;3059854;19;20006;-80
2022/09/26 05:29:28;;;;;;;10.60;6.10;;;10.00;99.90;;;;;;3060274;19;20007;-78
2022/09/26 05:30:33;;;;;;;11.00;5.80;;;;;;;;;;3058335;19;20039;-80
2022/09/26 05:31:36;;;;;;;10.20;5.90;;;;;;;;;;3059707;19;20074;-78
2022/09/26 05:32:47;;;;;;;9.23;5.90;;;10.10;99.90;;;;;;3049852;19;20030;-79
2022/09/26 05:33:55;;;;;;;9.43;6.40;;;10.40;99.90;;;;;;3054042;19;20027;-77
2022/09/26 05:34:58;;;;;;;8.55;6.18;;;9.90;99.90;;;;;;3055415;19;20007;-78
2022/09/26 05:36:03;;;;;;;9.30;5.72;;;10.10;99.90;;;;;;3051646;19;20385;-77
2022/09/26 05:37:07;;;;;;;9.82;6.30;;;10.30;99.90;;;;;;3053973;19;20114;-79
2022/09/26 05:38:11;;;;;;;10.25;6.40;;;9.80;99.90;;;;;;3054016;19;20015;-78
2022/09/26 05:41:50;;;;;;;11.63;6.30;;;10.20;99.90;;;;;;3056261;19;20010;-80
2022/09/26 05:42:58;;;;;;;11.27;6.30;;;10.60;99.90;;;;;;3054925;19;20014;-79
2022/09/26 05:44:02;;;;;;;12.52;6.32;;;10.10;99.90;;;;;;3053194;19;20364;-79
2022/09/26 05:45:05;;;;;;;9.40;6.10;;;10.30;99.90;;;;;;3054446;19;20043;-79
2022/09/26 05:46:11;;;;;;;13.57;7.15;;;10.10;99.90;;;;;;3055765;19;20025;-80
2022/09/26 05:47:12;;;;;;;10.10;6.28;;;9.90;99.90;;;;;;3055798;19;20027;-83
2022/09/26 05:48:16;;;;;;;8.90;6.00;;;;;;;;;;3055018;19;20010;-83
2022/09/26 05:49:18;;;;;;;11.90;6.95;;;10.40;99.90;;;;;;3050785;19;20092;-82
2022/09/26 05:50:23;;;;;;;9.55;6.55;;;;;;;;;;3053549;19;20016;-81
2022/09/26 05:51:28;;;;;;;11.95;7.00;;;10.40;99.90;;;;;;3058893;19;20010;-79
2022/09/26 05:52:29;;;;;;;10.00;6.18;;;10.10;99.90;;;;;;3053463;19;20563;-78
2022/09/26 05:53:34;;;;;;;10.82;6.63;;;8.80;99.90;;;;;;3058153;19;20026;-84